Time;durP1;ratioP1;P1;durP2;ratioP2;P2;SDS_P1;SDS_P2;PMS_P1;PMS_P2;Temp;Humidity;BMP_temperature;BMP_pressure;BME280_temperature;BME280_humidity;BME280_pressure;Samples;Min_cycle;Max_cycle;Signal;HPM_P1;HPM_P2
2022/11/15 00:02:47;;;;;;;9.43;7.55;;;23.10;47.00;;;;;;7677828;22;80451;-53
2022/11/15 00:06:06;;;;;;;10.38;7.72;;;23.10;46.90;;;;;;7678706;22;80462;-55
2022/11/15 00:09:25;;;;;;;9.50;7.22;;;23.10;47.00;;;;;;7677265;22;80187;-54
2022/11/15 00:12:44;;;;;;;8.18;6.90;;;23.10;46.90;;;;;;7677079;22;80449;-55
2022/11/15 00:16:03;;;;;;;9.68;7.30;;;23.10;47.00;;;;;;7673300;22;80079;-55
2022/11/15 00:19:22;;;;;;;9.63;7.03;;;23.10;47.00;;;;;;7675168;22;80514;-54
2022/11/15 00:22:41;;;;;;;10.57;7.60;;;23.10;47.00;;;;;;7677134;22;80028;-55
2022/11/15 00:26:00;;;;;;;9.40;7.20;;;23.10;46.90;;;;;;7680243;22;84500;-54
2022/11/15 00:29:19;;;;;;;10.20;6.82;;;23.10;47.00;;;;;;7714209;22;80137;-54
2022/11/15 00:32:38;;;;;;;7.93;6.57;;;23.10;46.90;;;;;;7716308;22;80112;-56
2022/11/15 00:35:57;;;;;;;7.90;6.65;;;23.10;46.90;;;;;;7717805;22;81573;-57
2022/11/15 00:39:16;;;;;;;10.20;7.35;;;23.10;46.90;;;;;;7717001;22;80399;-57
2022/11/15 00:42:35;;;;;;;9.73;6.95;;;23.10;46.90;;;;;;7715058;22;81305;-58
2022/11/15 00:45:54;;;;;;;9.80;6.43;;;23.10;47.00;;;;;;7716401;22;81496;-57
2022/11/15 00:49:13;;;;;;;8.63;7.13;;;23.00;46.90;;;;;;7713517;22;82062;-57
2022/11/15 00:52:32;;;;;;;7.40;6.40;;;23.10;47.00;;;;;;7715840;22;81812;-59
2022/11/15 00:55:51;;;;;;;7.68;6.50;;;23.10;47.10;;;;;;7715495;22;84819;-58
2022/11/15 00:59:10;;;;;;;8.10;6.63;;;23.10;46.90;;;;;;7714616;22;81769;-59
2022/11/15 01:02:29;;;;;;;7.47;6.32;;;23.10;46.90;;;;;;7713953;22;80854;-59
2022/11/15 01:05:48;;;;;;;7.78;6.38;;;23.10;46.90;;;;;;7716400;22;80496;-59
2022/11/15 01:09:07;;;;;;;9.32;7.53;;;23.10;46.80;;;;;;7715213;22;80516;-58
2022/11/15 01:12:26;;;;;;;7.10;6.03;;;23.10;46.70;;;;;;7715643;22;80751;-58
2022/11/15 01:15:45;;;;;;;8.38;5.97;;;23.10;46.90;;;;;;7714635;22;80295;-57
2022/11/15 01:19:04;;;;;;;8.25;6.25;;;23.10;46.80;;;;;;7716587;22;80484;-57
2022/11/15 01:22:23;;;;;;;7.35;5.82;;;23.10;46.70;;;;;;7701874;22;80349;-58
2022/11/15 01:32:03;;;;;;;7.45;6.00;;;23.10;46.60;;;;;;7694064;22;80130;-55
2022/11/15 01:35:23;;;;;;;6.82;5.85;;;23.10;46.70;;;;;;7675659;22;82216;-56
2022/11/15 01:38:42;;;;;;;6.50;5.63;;;23.00;46.60;;;;;;7668812;22;80351;-53
2022/11/15 01:42:01;;;;;;;9.50;6.55;;;23.00;46.70;;;;;;7679678;22;79847;-57
2022/11/15 01:45:20;;;;;;;6.45;5.70;;;23.00;46.80;;;;;;7678391;22;84391;-56
2022/11/15 01:48:39;;;;;;;8.93;5.70;;;23.10;47.20;;;;;;7678682;22;80538;-55
2022/11/15 01:51:58;;;;;;;6.38;5.60;;;23.00;46.90;;;;;;7678744;22;80189;-56
2022/11/15 01:55:17;;;;;;;6.78;5.20;;;23.00;46.70;;;;;;7678517;22;80084;-56
2022/11/15 01:58:36;;;;;;;6.63;5.38;;;23.00;46.70;;;;;;7675910;22;80046;-57
2022/11/15 02:01:55;;;;;;;6.93;5.75;;;23.00;46.80;;;;;;7677609;22;83427;-55
2022/11/15 02:05:14;;;;;;;7.63;6.35;;;23.00;46.70;;;;;;7677909;22;80571;-58
2022/11/15 02:08:33;;;;;;;7.07;5.78;;;23.00;46.70;;;;;;7678966;22;80329;-58
2022/11/15 02:11:52;;;;;;;6.40;5.35;;;23.00;46.80;;;;;;7678477;22;80483;-58
2022/11/15 02:15:11;;;;;;;5.80;5.15;;;23.00;46.80;;;;;;7678685;22;80691;-58
2022/11/15 02:18:30;;;;;;;6.72;5.45;;;23.00;46.80;;;;;;7677272;22;81308;-60
2022/11/15 02:21:49;;;;;;;5.90;5.30;;;23.00;46.80;;;;;;7677669;22;81737;-58
2022/11/15 02:25:08;;;;;;;6.47;5.65;;;23.00;46.80;;;;;;7678437;22;80232;-58
2022/11/15 02:28:27;;;;;;;6.97;5.85;;;23.00;46.70;;;;;;7680375;22;80900;-59
2022/11/15 02:31:45;;;;;;;5.88;5.15;;;23.00;46.80;;;;;;7682868;22;80410;-58
2022/11/15 02:35:04;;;;;;;7.72;5.93;;;23.00;46.80;;;;;;7715553;22;87539;-58
2022/11/15 02:38:24;;;;;;;5.47;4.93;;;23.00;46.70;;;;;;7719152;22;80407;-58
2022/11/15 02:41:43;;;;;;;6.10;5.25;;;23.00;46.80;;;;;;7716994;22;81447;-58
2022/11/15 02:45:02;;;;;;;6.22;5.32;;;23.00;46.80;;;;;;7716563;22;80511;-58
2022/11/15 02:48:21;;;;;;;5.85;5.03;;;23.00;46.70;;;;;;7719284;22;80354;-58
2022/11/15 02:51:40;;;;;;;6.75;6.05;;;23.00;46.70;;;;;;7716483;22;81687;-58
2022/11/15 02:54:59;;;;;;;6.95;5.45;;;23.00;46.80;;;;;;7719960;22;80819;-59
2022/11/15 02:58:18;;;;;;;6.47;5.75;;;23.00;46.80;;;;;;7719287;22;80294;-58
2022/11/15 03:01:37;;;;;;;7.40;6.10;;;23.00;46.50;;;;;;7714505;22;80492;-58
2022/11/15 03:04:56;;;;;;;8.07;5.78;;;23.00;46.60;;;;;;7719471;22;84859;-58
2022/11/15 03:08:15;;;;;;;6.45;5.75;;;22.90;46.50;;;;;;7718203;22;81237;-58
2022/11/15 03:11:34;;;;;;;7.25;5.72;;;22.90;46.40;;;;;;7695996;22;80770;-58
2022/11/15 03:14:53;;;;;;;6.47;5.57;;;22.90;46.60;;;;;;7720447;22;80404;-58
2022/11/15 03:18:12;;;;;;;7.97;5.38;;;23.00;46.40;;;;;;7719294;22;80469;-58
2022/11/15 03:21:31;;;;;;;5.60;4.80;;;22.90;46.30;;;;;;7718653;22;80383;-57
2022/11/15 03:24:50;;;;;;;5.82;4.90;;;22.90;46.30;;;;;;7719672;22;80695;-57
2022/11/15 03:28:09;;;;;;;6.13;5.38;;;22.90;46.30;;;;;;7717972;22;80293;-58
2022/11/15 03:31:46;;;;;;;7.05;4.75;;;22.90;46.10;;;;;;7718930;22;80322;-59
2022/11/15 03:35:05;;;;;;;6.10;5.00;;;22.90;46.20;;;;;;7716087;22;84679;-58
2022/11/15 03:38:25;;;;;;;6.63;5.07;;;22.90;46.20;;;;;;7714877;22;80786;-58
2022/11/15 03:41:44;;;;;;;6.00;5.03;;;22.90;46.10;;;;;;7715035;22;80216;-58
2022/11/15 03:45:03;;;;;;;5.55;4.72;;;22.90;46.10;;;;;;7714587;22;80312;-58
2022/11/15 03:48:22;;;;;;;5.18;4.68;;;22.90;46.10;;;;;;7715320;22;80552;-58
2022/11/15 03:51:41;;;;;;;6.55;5.43;;;22.90;46.10;;;;;;7718402;22;80361;-58
2022/11/15 03:55:00;;;;;;;5.35;4.72;;;22.90;46.10;;;;;;7714884;22;87248;-58
2022/11/15 03:58:19;;;;;;;5.95;5.05;;;22.90;46.10;;;;;;7713283;22;80216;-59
2022/11/15 04:01:38;;;;;;;6.28;5.18;;;22.90;46.10;;;;;;7716333;22;80637;-58
2022/11/15 04:04:57;;;;;;;6.45;5.28;;;22.90;46.10;;;;;;7714764;22;84522;-58
2022/11/15 04:08:16;;;;;;;6.03;4.63;;;22.90;46.10;;;;;;7714312;22;80333;-59
2022/11/15 04:11:35;;;;;;;6.85;5.45;;;22.90;46.10;;;;;;7717905;22;80392;-58
2022/11/15 04:15:06;;;;;;;5.97;5.07;;;22.90;46.20;;;;;;7717173;22;80247;-57
2022/11/15 04:18:26;;;;;;;5.50;4.75;;;22.90;45.90;;;;;;7714684;22;80005;-57
2022/11/15 04:25:22;;;;;;;7.10;5.45;;;23.00;45.40;;;;;;7714909;22;79924;-56
2022/11/15 04:43:09;;;;;;;7.28;5.00;;;23.20;45.20;;;;;;7710610;22;80443;-54
2022/11/15 04:46:28;;;;;;;6.15;4.75;;;23.30;45.30;;;;;;7698434;22;80510;-53
2022/11/15 04:49:47;;;;;;;5.55;4.80;;;23.30;45.60;;;;;;7694643;22;80328;-57
2022/11/15 04:53:06;;;;;;;5.82;4.60;;;23.30;46.10;;;;;;7701937;22;83342;-56
2022/11/15 04:56:25;;;;;;;5.15;4.32;;;23.40;46.50;;;;;;7706629;22;80103;-57
2022/11/15 04:59:44;;;;;;;8.27;4.22;;;23.40;46.60;;;;;;7712471;22;80433;-58
2022/11/15 05:06:41;;;;;;;4.47;4.00;;;23.50;46.70;;;;;;7698444;22;80914;-55
2022/11/15 05:10:00;;;;;;;5.70;4.57;;;23.50;46.60;;;;;;7702803;22;81115;-53
2022/11/15 05:13:19;;;;;;;6.85;3.85;;;23.50;46.30;;;;;;7705855;22;80299;-52
2022/11/15 05:16:38;;;;;;;14.50;4.22;;;23.60;46.30;;;;;;7710507;22;80199;-55
2022/11/15 05:19:57;;;;;;;5.70;4.50;;;23.60;46.10;;;;;;7712430;22;83420;-55
2022/11/15 05:23:16;;;;;;;10.32;4.22;;;23.60;46.10;;;;;;7708737;22;80422;-55
2022/11/15 05:26:35;;;;;;;5.05;4.18;;;23.60;46.60;;;;;;7712546;22;80727;-57
2022/11/15 05:29:54;;;;;;;5.10;4.40;;;23.60;46.50;;;;;;7712962;22;80299;-58
2022/11/15 05:33:13;;;;;;;4.80;3.83;;;23.60;46.80;;;;;;7714735;22;80562;-55
2022/11/15 05:36:32;;;;;;;4.28;3.88;;;23.60;46.90;;;;;;7696355;22;81168;-56
2022/11/15 05:39:51;;;;;;;6.80;3.67;;;23.60;46.40;;;;;;7704599;22;80599;-60
2022/11/15 05:43:10;;;;;;;4.65;4.10;;;23.60;46.30;;;;;;7710555;22;80570;-63
2022/11/15 05:46:29;;;;;;;4.15;3.63;;;23.60;46.00;;;;;;7711923;22;80443;-62
2022/11/15 05:49:48;;;;;;;4.65;4.13;;;23.60;45.70;;;;;;7711741;22;80476;-62
2022/11/15 05:53:07;;;;;;;7.57;4.10;;;23.60;45.40;;;;;;7709916;22;84459;-55
2022/11/15 05:56:27;;;;;;;8.80;5.10;;;23.60;45.10;;;;;;7708042;22;80940;-56
2022/11/15 05:59:46;;;;;;;6.05;4.50;;;23.60;45.40;;;;;;7711706;22;80336;-66
2022/11/15 06:03:05;;;;;;;16.92;5.53;;;23.50;45.30;;;;;;7709056;22;80799;-66
2022/11/15 06:06:24;;;;;;;6.78;4.53;;;23.50;45.20;;;;;;7696903;22;80461;-55
2022/11/15 06:09:43;;;;;;;5.13;4.28;;;23.50;44.80;;;;;;7705525;22;81280;-53
2022/11/15 06:13:02;;;;;;;5.40;3.80;;;23.50;44.50;;;;;;7707456;22;80810;-56
2022/11/15 06:16:20;;;;;;;7.15;4.72;;;23.40;44.40;;;;;;7712010;22;82085;-57
2022/11/15 06:19:39;;;;;;;8.98;4.68;;;23.40;44.20;;;;;;7709824;22;81959;-53
2022/11/15 06:22:58;;;;;;;5.65;4.60;;;23.30;44.20;;;;;;7712430;22;84847;-55
2022/11/15 06:26:18;;;;;;;5.88;4.55;;;23.30;44.10;;;;;;7712512;22;80132;-55
2022/11/15 06:29:37;;;;;;;5.47;4.10;;;23.30;43.90;;;;;;7713663;22;81807;-56
2022/11/15 06:32:56;;;;;;;6.85;4.90;;;23.30;44.00;;;;;;7716250;22;79845;-55
2022/11/15 06:36:16;;;;;;;8.70;4.70;;;23.20;44.10;;;;;;7717627;22;81433;-55
2022/11/15 06:39:35;;;;;;;6.30;4.47;;;23.20;43.90;;;;;;7705378;22;81859;-56
2022/11/15 06:42:54;;;;;;;8.60;4.32;;;23.20;43.90;;;;;;7711637;22;81843;-56
2022/11/15 06:46:13;;;;;;;4.85;4.35;;;23.20;43.70;;;;;;7713694;22;81401;-56
2022/11/15 06:49:32;;;;;;;4.93;4.05;;;23.10;43.60;;;;;;7713840;22;80875;-56
2022/11/15 06:52:51;;;;;;;9.45;4.72;;;23.10;43.40;;;;;;7716410;22;84603;-54
2022/11/15 06:56:11;;;;;;;6.28;4.93;;;23.10;43.40;;;;;;7706930;22;81414;-55
2022/11/15 06:59:30;;;;;;;7.47;5.15;;;23.10;43.20;;;;;;7698629;22;81336;-59
2022/11/15 07:02:49;;;;;;;5.97;5.00;;;23.10;43.20;;;;;;7695978;22;81351;-60
2022/11/15 07:06:08;;;;;;;5.32;4.32;;;23.10;43.10;;;;;;7696655;22;81729;-60
2022/11/15 07:09:27;;;;;;;5.18;4.10;;;23.00;43.10;;;;;;7709552;22;81075;-60
2022/11/15 07:12:46;;;;;;;5.75;4.78;;;23.00;43.00;;;;;;7711682;22;82214;-60
2022/11/15 07:16:05;;;;;;;5.05;4.55;;;23.00;43.00;;;;;;7716965;22;80564;-58
2022/11/15 07:19:24;;;;;;;10.00;5.07;;;23.00;43.00;;;;;;7690125;22;81658;-58
2022/11/15 07:22:45;;;;;;;5.57;4.88;;;23.00;43.00;;;;;;7715650;22;80446;-58
2022/11/15 07:26:04;;;;;;;5.25;4.40;;;23.00;43.00;;;;;;7712653;22;84554;-58
2022/11/15 07:29:23;;;;;;;4.85;3.97;;;23.00;43.00;;;;;;7714895;22;80438;-58
2022/11/15 07:32:42;;;;;;;6.32;5.15;;;22.90;43.00;;;;;;7716215;22;80340;-58
2022/11/15 07:36:01;;;;;;;6.65;4.60;;;23.00;43.20;;;;;;7717987;22;80651;-58
2022/11/15 07:39:20;;;;;;;5.75;4.65;;;22.90;43.10;;;;;;7715745;22;80408;-58
2022/11/15 08:00:34;;;;;;;5.68;5.05;;;22.90;43.40;;;;;;7678870;22;80461;-58
2022/11/15 08:03:53;;;;;;;5.70;4.70;;;22.90;43.50;;;;;;7677714;22;80420;-58
2022/11/15 08:07:12;;;;;;;5.65;5.00;;;22.80;43.70;;;;;;7680754;22;79959;-57
2022/11/15 08:10:31;;;;;;;6.15;5.13;;;22.80;43.60;;;;;;7668051;22;79967;-55
2022/11/15 08:13:50;;;;;;;5.10;4.60;;;22.80;43.60;;;;;;7663780;22;84875;-59
2022/11/15 08:17:09;;;;;;;6.53;5.15;;;22.80;43.70;;;;;;7540475;22;81958;-57
2022/11/15 08:20:31;;;;;;;6.80;5.25;;;22.80;43.80;;;;;;7494310;22;83730;-55
2022/11/15 08:23:50;;;;;;;5.78;5.18;;;22.80;43.80;;;;;;7642451;22;81987;-57
2022/11/15 08:27:14;;;;;;;7.00;5.43;;;22.80;43.80;;;;;;7665465;22;81333;-57
2022/11/15 08:30:33;;;;;;;5.50;5.00;;;22.90;43.90;;;;;;7655706;22;80305;-57
2022/11/15 08:33:52;;;;;;;5.63;4.57;;;22.90;43.90;;;;;;7665191;22;80792;-56
2022/11/15 08:37:11;;;;;;;7.25;5.57;;;22.90;43.60;;;;;;7669111;22;80345;-56
2022/11/15 08:40:30;;;;;;;7.00;5.28;;;22.90;43.30;;;;;;7668874;22;84944;-57
2022/11/15 08:43:49;;;;;;;6.22;5.13;;;23.00;43.10;;;;;;7671338;22;81574;-57
2022/11/15 08:47:08;;;;;;;6.22;4.85;;;23.00;43.10;;;;;;7669640;22;84444;-57
2022/11/15 08:50:27;;;;;;;6.10;5.50;;;23.10;43.20;;;;;;7676873;22;80281;-57
2022/11/15 08:53:46;;;;;;;7.43;5.70;;;23.10;43.20;;;;;;7673017;22;82041;-56
2022/11/15 08:57:05;;;;;;;6.25;5.40;;;23.20;43.20;;;;;;7671375;22;85302;-57
2022/11/15 09:00:24;;;;;;;5.82;5.22;;;23.20;43.10;;;;;;7697656;22;80478;-53
2022/11/15 09:03:43;;;;;;;9.50;5.50;;;23.30;43.10;;;;;;7713946;22;80928;-57
2022/11/15 09:07:02;;;;;;;7.57;5.60;;;23.30;43.20;;;;;;7711421;22;79984;-56
2022/11/15 09:10:21;;;;;;;8.55;6.30;;;23.30;43.20;;;;;;7711979;22;80355;-55
2022/11/15 09:13:40;;;;;;;9.10;6.45;;;23.40;43.30;;;;;;7711762;22;80142;-56
2022/11/15 09:16:59;;;;;;;8.13;6.75;;;23.40;43.40;;;;;;7711794;22;84642;-54
2022/11/15 09:20:18;;;;;;;10.10;6.50;;;23.40;43.40;;;;;;7713322;22;80055;-55
2022/11/15 09:23:38;;;;;;;8.30;6.22;;;23.40;43.50;;;;;;7710545;22;80692;-57
2022/11/15 09:26:57;;;;;;;9.73;6.60;;;23.50;43.60;;;;;;7713415;22;80497;-56
2022/11/15 09:30:15;;;;;;;9.35;6.82;;;23.50;43.70;;;;;;7709809;22;81413;-56
2022/11/15 09:33:34;;;;;;;10.57;7.43;;;23.50;43.70;;;;;;7713282;22;80388;-55
2022/11/15 09:36:53;;;;;;;9.13;6.95;;;23.50;43.70;;;;;;7705210;22;81841;-57
2022/11/15 09:40:15;;;;;;;7.90;6.15;;;23.60;43.80;;;;;;7699977;22;80510;-54
2022/11/15 09:43:34;;;;;;;10.02;6.97;;;23.60;43.80;;;;;;7712692;22;79867;-59
2022/11/15 09:46:53;;;;;;;8.80;6.60;;;23.60;43.80;;;;;;7710190;22;83391;-58
2022/11/15 09:50:02;;;;;;;7.97;6.55;;;23.60;43.80;;;;;;7708684;22;80141;-57
2022/11/15 09:53:07;;;;;;;8.07;6.78;;;23.60;43.80;;;;;;7684553;22;82821;-58
2022/11/15 09:56:08;;;;;;;9.27;6.43;;;23.70;43.90;;;;;;7710268;22;80273;-58
2022/11/15 09:59:09;;;;;;;9.63;7.35;;;23.70;44.00;;;;;;7710446;22;80205;-58
2022/11/15 10:02:09;;;;;;;7.88;6.68;;;23.70;44.10;;;;;;7710906;22;80820;-58
2022/11/15 10:05:10;;;;;;;10.85;7.20;;;23.70;44.10;;;;;;7680685;22;81946;-58
2022/11/15 10:08:10;;;;;;;8.98;6.90;;;23.70;44.10;;;;;;7712877;22;81545;-58
2022/11/15 10:11:11;;;;;;;9.18;6.65;;;23.70;44.10;;;;;;7715983;22;81320;-58
2022/11/15 10:14:11;;;;;;;8.40;6.82;;;23.60;44.10;;;;;;7714249;22;80743;-59
2022/11/15 10:17:12;;;;;;;11.25;7.10;;;23.60;44.30;;;;;;7715709;22;80531;-59
2022/11/15 10:20:12;;;;;;;10.57;7.70;;;23.60;44.40;;;;;;7712298;22;80532;-54
2022/11/15 10:23:13;;;;;;;10.57;7.45;;;23.60;44.40;;;;;;7717130;22;80429;-54
2022/11/15 10:26:13;;;;;;;8.02;6.72;;;23.60;44.30;;;;;;7715539;22;80265;-55
2022/11/15 10:29:14;;;;;;;10.98;8.10;;;23.70;44.50;;;;;;7711621;22;80078;-55
2022/11/15 10:32:14;;;;;;;10.35;7.03;;;23.80;44.60;;;;;;7716110;22;80757;-55
2022/11/15 10:35:15;;;;;;;8.60;7.15;;;23.90;44.40;;;;;;7715260;22;83945;-56
2022/11/15 10:38:15;;;;;;;10.85;6.93;;;24.00;44.50;;;;;;7714980;22;81399;-55
2022/11/15 10:41:16;;;;;;;10.02;6.90;;;24.30;44.60;;;;;;7713827;22;80872;-55
2022/11/15 10:44:16;;;;;;;10.20;7.20;;;24.50;44.60;;;;;;7711604;22;79996;-53
2022/11/15 10:47:17;;;;;;;8.73;6.65;;;24.70;44.50;;;;;;7714533;22;80267;-59
2022/11/15 10:50:17;;;;;;;9.02;7.00;;;24.90;44.30;;;;;;7714916;22;80507;-56
2022/11/15 10:53:18;;;;;;;10.15;7.13;;;25.00;44.10;;;;;;7715215;22;80191;-55
2022/11/15 10:56:18;;;;;;;11.25;7.18;;;25.20;43.80;;;;;;7711819;22;80189;-58
2022/11/15 10:59:19;;;;;;;9.77;6.82;;;25.30;43.40;;;;;;7713835;22;80699;-57
2022/11/15 11:02:19;;;;;;;10.02;7.50;;;25.50;43.20;;;;;;7711800;22;81051;-57
2022/11/15 11:05:20;;;;;;;8.27;6.47;;;25.60;43.00;;;;;;7715323;22;81050;-57
2022/11/15 11:08:20;;;;;;;9.30;6.90;;;25.70;42.90;;;;;;7686534;22;81789;-58
2022/11/15 11:11:20;;;;;;;8.45;6.20;;;25.80;43.00;;;;;;7689372;22;80580;-58
2022/11/15 11:14:22;;;;;;;9.02;6.63;;;25.90;43.00;;;;;;7715170;22;80781;-58
2022/11/15 11:17:23;;;;;;;10.82;6.93;;;26.00;42.90;;;;;;7714390;22;81063;-54
2022/11/15 11:20:23;;;;;;;7.85;6.13;;;26.00;42.80;;;;;;7713181;22;80320;-56
2022/11/15 11:23:23;;;;;;;7.72;6.35;;;26.10;42.80;;;;;;7686778;22;81783;-55
2022/11/15 11:26:24;;;;;;;8.25;6.30;;;26.10;42.50;;;;;;7712511;22;80630;-55
2022/11/15 11:29:24;;;;;;;8.82;6.53;;;26.20;42.70;;;;;;7686958;22;80461;-57
2022/11/15 11:32:25;;;;;;;8.55;6.75;;;26.20;42.50;;;;;;7707371;22;81262;-56
2022/11/15 11:35:25;;;;;;;7.75;6.45;;;26.30;42.40;;;;;;7707423;22;81421;-56
2022/11/15 11:38:26;;;;;;;10.52;6.95;;;26.40;42.50;;;;;;7709472;22;80971;-56
2022/11/15 11:41:26;;;;;;;6.63;5.93;;;26.50;42.60;;;;;;7708203;22;81050;-57
2022/11/15 11:44:27;;;;;;;9.20;6.57;;;26.50;42.40;;;;;;7706500;22;80502;-56
2022/11/15 11:47:27;;;;;;;8.43;6.43;;;26.50;42.70;;;;;;7713762;22;80572;-57
2022/11/15 11:50:28;;;;;;;7.35;6.30;;;26.30;42.60;;;;;;7712740;22;80271;-55
2022/11/15 11:53:28;;;;;;;10.93;7.07;;;26.10;43.30;;;;;;7713270;22;81288;-56
2022/11/15 11:56:29;;;;;;;8.60;6.72;;;26.00;43.00;;;;;;7716489;22;80518;-56
2022/11/15 11:59:29;;;;;;;9.95;7.10;;;25.90;43.20;;;;;;7704191;22;81496;-56
2022/11/15 12:02:30;;;;;;;11.07;7.70;;;25.80;43.30;;;;;;7707748;22;87094;-56
2022/11/15 12:05:30;;;;;;;9.85;7.30;;;25.70;43.40;;;;;;7709412;22;80526;-57
2022/11/15 12:08:31;;;;;;;9.38;7.07;;;25.60;43.80;;;;;;7705315;22;80928;-57
2022/11/15 12:11:31;;;;;;;9.65;7.57;;;25.40;43.80;;;;;;7711033;22;81084;-56
2022/11/15 12:14:32;;;;;;;10.50;7.72;;;25.30;43.90;;;;;;7703131;22;81672;-52
2022/11/15 12:17:32;;;;;;;11.07;7.25;;;25.20;44.00;;;;;;7709005;22;81967;-55
2022/11/15 12:20:33;;;;;;;9.95;7.20;;;25.10;44.00;;;;;;7709927;22;80664;-56
2022/11/15 12:23:33;;;;;;;9.70;7.70;;;25.10;44.10;;;;;;7683279;22;81120;-56
2022/11/15 12:26:34;;;;;;;15.90;11.93;;;24.90;44.60;;;;;;7712486;22;82298;-57
2022/11/15 12:29:34;;;;;;;22.85;16.08;;;24.70;42.80;;;;;;7708111;22;82915;-57
2022/11/15 12:32:35;;;;;;;24.48;14.98;;;24.40;42.00;;;;;;7710286;22;82870;-56
2022/11/15 12:35:35;;;;;;;22.40;15.07;;;24.20;42.20;;;;;;7699126;22;84493;-56
2022/11/15 12:38:36;;;;;;;23.85;15.30;;;24.10;42.70;;;;;;7704648;22;83832;-56
2022/11/15 12:41:36;;;;;;;29.38;16.77;;;24.00;42.70;;;;;;7710812;22;83474;-56
2022/11/15 12:44:38;;;;;;;24.95;17.23;;;24.00;42.50;;;;;;7709268;22;83755;-56
2022/11/15 12:47:38;;;;;;;24.67;17.67;;;23.90;42.60;;;;;;7710075;22;82906;-57
2022/11/15 12:50:39;;;;;;;29.15;18.30;;;23.80;42.50;;;;;;7705482;22;84092;-57
2022/11/15 12:53:39;;;;;;;33.97;19.33;;;23.70;42.20;;;;;;7710599;22;84371;-54
2022/11/15 12:56:40;;;;;;;29.65;18.63;;;23.40;42.10;;;;;;7709164;22;82985;-56
2022/11/15 12:59:40;;;;;;;23.98;16.65;;;23.30;42.10;;;;;;7682130;22;85914;-55
2022/11/15 13:02:45;;;;;;;30.00;17.23;;;23.30;42.60;;;;;;7708869;22;84142;-57
2022/11/15 13:05:45;;;;;;;30.65;18.67;;;23.30;42.80;;;;;;7705706;22;84293;-57
2022/11/15 13:08:47;;;;;;;26.15;17.83;;;23.20;43.00;;;;;;7701959;22;83234;-58
2022/11/15 13:11:48;;;;;;;25.73;17.90;;;23.20;43.20;;;;;;7706964;22;82948;-57
2022/11/15 13:14:48;;;;;;;24.10;16.17;;;23.20;43.20;;;;;;7709233;22;84350;-57
2022/11/15 13:17:49;;;;;;;22.38;16.17;;;23.10;43.30;;;;;;7711297;22;83378;-57
2022/11/15 13:20:49;;;;;;;21.00;15.27;;;23.10;43.30;;;;;;7707064;22;83931;-55
2022/11/15 13:23:50;;;;;;;21.00;14.02;;;23.20;43.40;;;;;;7707297;22;82978;-56
2022/11/15 13:26:50;;;;;;;21.52;13.98;;;23.20;44.10;;;;;;7704764;22;82586;-55
2022/11/15 13:29:51;;;;;;;19.35;13.93;;;23.20;43.60;;;;;;7710590;22;83704;-55
2022/11/15 13:32:51;;;;;;;21.33;13.00;;;23.20;43.70;;;;;;7708705;22;83434;-56
2022/11/15 13:35:51;;;;;;;20.05;12.43;;;23.20;43.80;;;;;;7711017;22;83207;-56
2022/11/15 13:38:52;;;;;;;17.70;11.68;;;23.30;43.90;;;;;;7706083;22;83290;-56
2022/11/15 13:41:52;;;;;;;14.25;10.25;;;23.30;44.10;;;;;;7708709;22;83194;-57
2022/11/15 13:44:53;;;;;;;13.60;8.52;;;23.20;45.20;;;;;;7709579;22;83141;-55
2022/11/15 13:47:53;;;;;;;10.60;7.78;;;23.20;45.80;;;;;;7713224;22;82690;-56
2022/11/15 13:50:54;;;;;;;8.65;6.63;;;23.10;47.00;;;;;;7711372;22;80462;-55
2022/11/15 13:53:54;;;;;;;8.20;6.45;;;23.10;47.80;;;;;;7711060;22;80750;-56
2022/11/15 13:56:55;;;;;;;7.10;5.82;;;23.10;48.10;;;;;;7712843;22;81058;-56
2022/11/15 13:59:56;;;;;;;7.25;5.32;;;23.10;48.70;;;;;;7714146;22;81045;-55
2022/11/15 14:02:56;;;;;;;7.47;5.10;;;23.10;49.30;;;;;;7711954;22;80250;-56
2022/11/15 14:05:57;;;;;;;9.25;5.18;;;23.00;49.60;;;;;;7712332;22;80502;-56
2022/11/15 14:08:57;;;;;;;7.95;5.03;;;23.00;50.00;;;;;;7714357;22;80848;-56
2022/11/15 14:11:57;;;;;;;4.90;4.20;;;23.00;50.50;;;;;;7714560;22;80464;-56
2022/11/15 14:14:58;;;;;;;4.90;4.28;;;23.00;51.70;;;;;;7713842;22;81152;-56
2022/11/15 14:17:59;;;;;;;5.10;3.95;;;22.90;51.60;;;;;;7714787;22;80121;-59
2022/11/15 14:21:08;;;;;;;5.07;3.65;;;22.90;51.70;;;;;;7714736;22;80221;-59
2022/11/15 14:24:09;;;;;;;5.80;3.85;;;23.00;51.90;;;;;;7712643;22;80315;-59
2022/11/15 14:27:09;;;;;;;5.85;3.80;;;23.10;52.10;;;;;;7714245;22;80413;-58
2022/11/15 14:30:10;;;;;;;5.43;4.25;;;23.10;52.20;;;;;;7712662;22;80393;-60
2022/11/15 14:33:10;;;;;;;5.78;3.40;;;23.10;52.50;;;;;;7707225;22;82294;-59
2022/11/15 14:36:11;;;;;;;5.57;4.10;;;23.20;52.80;;;;;;7717786;22;80343;-58
2022/11/15 14:39:12;;;;;;;8.32;3.90;;;23.20;52.90;;;;;;7713793;22;81507;-56
2022/11/15 14:42:12;;;;;;;8.20;4.10;;;23.20;53.30;;;;;;7688449;22;83325;-55
2022/11/15 14:45:13;;;;;;;8.63;4.13;;;23.20;53.80;;;;;;7702096;22;81877;-56
2022/11/15 14:48:13;;;;;;;7.63;4.45;;;23.20;53.90;;;;;;7705516;22;81163;-54
2022/11/15 14:51:14;;;;;;;7.53;4.50;;;23.20;54.00;;;;;;7710767;22;80429;-56
2022/11/15 14:54:14;;;;;;;8.40;4.93;;;23.30;54.10;;;;;;7700396;22;82218;-54
2022/11/15 14:57:15;;;;;;;6.72;4.28;;;23.40;54.60;;;;;;7709732;22;81241;-57
2022/11/15 15:00:15;;;;;;;6.70;4.65;;;23.40;54.80;;;;;;7691480;22;81250;-57
2022/11/15 15:03:16;;;;;;;7.00;4.40;;;23.40;54.90;;;;;;7701208;22;80288;-56
2022/11/15 15:06:16;;;;;;;8.20;5.45;;;23.50;55.70;;;;;;7696222;22;81380;-58
2022/11/15 15:09:17;;;;;;;8.68;4.68;;;23.50;56.00;;;;;;7702292;22;81951;-57
2022/11/15 15:12:17;;;;;;;6.70;4.10;;;23.50;56.20;;;;;;7706259;22;80527;-55
2022/11/15 15:15:18;;;;;;;53.50;18.52;;;23.60;57.30;;;;;;7709490;22;80300;-58
2022/11/15 15:18:18;;;;;;;60.08;17.92;;;23.60;57.00;;;;;;7704288;22;83207;-57
2022/11/15 15:21:19;;;;;;;42.53;16.02;;;23.60;57.40;;;;;;7705596;22;82868;-57
2022/11/15 15:24:19;;;;;;;38.72;15.82;;;23.70;58.00;;;;;;7705190;22;82998;-56
2022/11/15 15:27:20;;;;;;;36.05;13.60;;;23.70;57.40;;;;;;7703884;22;88422;-56
2022/11/15 15:30:20;;;;;;;39.63;14.05;;;23.70;57.00;;;;;;7677117;22;84647;-54
2022/11/15 15:33:21;;;;;;;33.00;12.93;;;23.80;56.60;;;;;;7706215;22;82960;-55
2022/11/15 15:36:21;;;;;;;31.58;13.48;;;23.80;56.50;;;;;;7676572;22;83786;-54
2022/11/15 15:39:22;;;;;;;29.98;13.27;;;23.80;56.30;;;;;;7700012;22;83280;-57
2022/11/15 15:42:22;;;;;;;34.17;13.27;;;23.90;56.60;;;;;;7697276;22;83599;-56
2022/11/15 15:45:23;;;;;;;32.45;13.32;;;23.90;56.30;;;;;;7698512;22;83094;-57
2022/11/15 15:48:23;;;;;;;29.77;11.63;;;23.90;56.30;;;;;;7705904;22;83069;-54
2022/11/15 15:51:24;;;;;;;30.33;11.52;;;23.90;56.10;;;;;;7703661;22;83741;-55
2022/11/15 15:54:24;;;;;;;29.13;12.35;;;23.90;56.20;;;;;;7705750;22;83934;-54
2022/11/15 15:57:25;;;;;;;28.27;12.48;;;23.90;56.00;;;;;;7706667;22;82925;-56
2022/11/15 16:00:25;;;;;;;25.80;12.88;;;23.90;55.90;;;;;;7704303;22;83034;-55
2022/11/15 16:03:27;;;;;;;26.30;11.75;;;23.90;56.00;;;;;;7699096;22;84020;-54
2022/11/15 16:06:27;;;;;;;24.48;12.20;;;23.90;55.70;;;;;;7701338;22;85005;-53
2022/11/15 16:12:47;;;;;;;25.52;12.32;;;23.90;55.90;;;;;;7706687;22;83318;-61
2022/11/15 16:15:47;;;;;;;22.85;12.25;;;23.90;55.90;;;;;;7704740;22;83008;-62
2022/11/15 16:18:48;;;;;;;23.70;12.00;;;24.00;55.80;;;;;;7706968;22;83348;-62
2022/11/15 16:21:48;;;;;;;26.73;11.60;;;24.00;55.50;;;;;;7708332;22;82622;-63
2022/11/15 16:24:49;;;;;;;21.42;11.38;;;24.00;55.60;;;;;;7706083;22;83216;-59
2022/11/15 16:27:49;;;;;;;24.88;12.60;;;24.00;55.70;;;;;;7702790;22;82953;-59
2022/11/15 16:30:50;;;;;;;23.60;11.90;;;24.00;55.40;;;;;;7704390;22;83573;-61
2022/11/15 16:33:50;;;;;;;27.70;12.57;;;24.00;55.90;;;;;;7714794;22;83161;-60
2022/11/15 16:36:51;;;;;;;23.50;13.15;;;24.00;55.60;;;;;;7712644;22;83076;-59
2022/11/15 16:39:51;;;;;;;21.58;11.55;;;24.00;55.40;;;;;;7713218;22;82702;-58
2022/11/15 16:42:52;;;;;;;20.33;12.13;;;24.00;55.20;;;;;;7711879;22;83118;-59
2022/11/15 16:45:52;;;;;;;26.67;13.15;;;24.00;55.10;;;;;;7704508;22;83225;-59
2022/11/15 16:48:53;;;;;;;20.60;12.75;;;24.00;55.10;;;;;;7707436;22;82619;-61
2022/11/15 16:51:53;;;;;;;26.88;13.43;;;24.00;54.70;;;;;;7709939;22;82975;-59
2022/11/15 16:54:54;;;;;;;24.67;12.68;;;24.00;54.50;;;;;;7711316;22;83506;-59
2022/11/15 16:57:54;;;;;;;26.55;11.73;;;24.00;54.40;;;;;;7711013;22;82951;-60
2022/11/15 17:00:55;;;;;;;24.27;12.80;;;24.00;54.40;;;;;;7709980;22;83400;-60
2022/11/15 17:03:55;;;;;;;30.50;13.68;;;24.00;54.30;;;;;;7713246;22;82866;-58
2022/11/15 17:06:55;;;;;;;24.90;12.25;;;24.00;54.20;;;;;;7713039;22;83239;-55
2022/11/15 17:09:56;;;;;;;22.90;12.98;;;24.00;54.10;;;;;;7709947;22;84032;-54
2022/11/15 17:12:57;;;;;;;22.35;12.52;;;24.00;54.00;;;;;;7712226;22;84633;-55